createdAt,value
2023-02-06T00:01:31.145Z,13.57
2023-02-06T00:03:58.163Z,14.30
2023-02-06T00:06:25.475Z,13.60
2023-02-06T00:08:52.951Z,14.47
2023-02-06T00:11:21.283Z,14.80
2023-02-06T00:13:48.848Z,14.60
2023-02-06T00:16:27.214Z,13.43
2023-02-06T00:18:56.136Z,14.93
2023-02-06T00:21:25.971Z,14.40
2023-02-06T00:23:58.488Z,14.77
2023-02-06T00:26:26.045Z,14.83
2023-02-06T00:28:53.203Z,14.43
2023-02-06T00:31:21.076Z,13.83
2023-02-06T00:33:48.464Z,14.10
2023-02-06T00:36:15.831Z,14.77
2023-02-06T00:38:43.148Z,14.10
2023-02-06T00:41:10.536Z,14.53
2023-02-06T00:43:37.968Z,14.93
2023-02-06T00:46:05.416Z,15.30
2023-02-06T00:48:32.869Z,14.73
2023-02-06T00:51:00.130Z,15.60
2023-02-06T00:53:27.582Z,15.90
2023-02-06T00:55:54.736Z,15.23
2023-02-06T00:58:22.290Z,15.43
2023-02-06T01:00:49.689Z,15.97
2023-02-06T01:03:17.355Z,15.47
2023-02-06T01:05:44.700Z,15.37
2023-02-06T01:08:11.841Z,16.10
2023-02-06T01:10:42.233Z,15.73
2023-02-06T01:13:10.406Z,15.50
2023-02-06T01:15:38.183Z,15.93
2023-02-06T01:18:05.892Z,16.03
2023-02-06T01:20:33.537Z,15.47
2023-02-06T01:23:00.945Z,15.00
2023-02-06T01:25:28.891Z,13.77
2023-02-06T01:27:56.087Z,16.37
2023-02-06T01:30:23.744Z,14.97
2023-02-06T01:32:50.900Z,14.73
2023-02-06T01:35:18.083Z,14.93
2023-02-06T01:37:45.175Z,14.20
2023-02-06T01:40:15.398Z,14.03
2023-02-06T01:42:42.858Z,14.07
2023-02-06T01:45:22.133Z,13.40
2023-02-06T01:47:52.255Z,12.80
2023-02-06T01:50:20.604Z,14.20
2023-02-06T01:52:48.159Z,12.50
2023-02-06T01:55:15.858Z,13.47
2023-02-06T01:57:43.343Z,15.20
2023-02-06T02:00:11.808Z,14.00
2023-02-06T02:02:43.762Z,14.20
2023-02-06T02:05:12.592Z,14.57
2023-02-06T02:07:50.209Z,14.30
2023-02-06T02:10:17.758Z,15.50
2023-02-06T02:12:45.105Z,16.00
2023-02-06T02:15:12.434Z,16.57
2023-02-06T02:18:03.440Z,17.07
2023-02-06T02:20:57.079Z,17.63
2023-02-06T02:23:34.712Z,18.23
2023-02-06T02:26:26.657Z,19.00
2023-02-06T02:29:16.546Z,16.77
2023-02-06T02:32:08.770Z,16.70
2023-02-06T02:35:06.483Z,16.53
2023-02-06T02:38:04.017Z,20.13
2023-02-06T02:40:31.784Z,21.93
2023-02-06T02:43:11.098Z,23.57
2023-02-06T02:46:05.696Z,25.67
2023-02-06T02:48:39.696Z,23.73
2023-02-06T02:51:08.100Z,24.53
2023-02-06T02:53:36.508Z,26.50
2023-02-06T02:56:23.025Z,27.50
2023-02-06T02:58:57.226Z,28.73
2023-02-06T03:01:34.103Z,28.33
2023-02-06T03:04:09.463Z,29.90
2023-02-06T03:06:51.964Z,29.07
2023-02-06T03:09:34.142Z,31.73
2023-02-06T03:12:18.076Z,34.83
2023-02-06T03:14:57.014Z,34.30
2023-02-06T03:17:35.674Z,36.50
2023-02-06T03:20:06.012Z,37.20
2023-02-06T03:22:36.380Z,39.37
2023-02-06T03:25:10.597Z,41.93
2023-02-06T03:27:41.366Z,42.73
2023-02-06T03:30:12.072Z,42.83
2023-02-06T03:32:46.014Z,44.70
2023-02-06T03:35:18.474Z,45.67
2023-02-06T03:37:46.967Z,43.07
2023-02-06T03:40:14.831Z,43.33
2023-02-06T03:42:56.382Z,42.07
2023-02-06T03:45:23.532Z,43.27
2023-02-06T03:47:52.771Z,41.90
2023-02-06T03:50:22.037Z,43.50
2023-02-06T03:52:51.379Z,40.80
2023-02-06T03:55:21.295Z,39.37
2023-02-06T03:57:56.218Z,37.73
2023-02-06T04:00:23.668Z,38.83
2023-02-06T04:02:52.532Z,39.03
2023-02-06T04:05:19.893Z,38.33
2023-02-06T04:07:47.300Z,37.70
2023-02-06T04:10:14.551Z,37.57
2023-02-06T04:12:41.792Z,36.20
2023-02-06T04:15:09.292Z,35.17
2023-02-06T04:17:58.985Z,34.20
2023-02-06T04:20:24.380Z,34.93
2023-02-06T04:22:51.529Z,35.63
2023-02-06T04:25:18.673Z,35.20
2023-02-06T04:27:46.005Z,34.50
2023-02-06T04:30:13.557Z,34.97
2023-02-06T04:32:40.966Z,35.60
2023-02-06T04:35:08.200Z,36.70
2023-02-06T04:37:35.374Z,35.60
2023-02-06T04:40:02.448Z,36.77
2023-02-06T04:42:29.544Z,38.83
2023-02-06T04:44:56.537Z,36.97
2023-02-06T04:47:23.976Z,37.80
2023-02-06T04:49:51.161Z,38.03
2023-02-06T04:52:18.263Z,38.87
2023-02-06T04:54:45.415Z,39.20
2023-02-06T04:57:12.378Z,38.67
2023-02-06T04:59:39.411Z,40.10
2023-02-06T05:02:06.849Z,41.60
2023-02-06T05:04:33.948Z,39.57
2023-02-06T05:07:01.110Z,39.03
2023-02-06T05:09:28.282Z,39.57
2023-02-06T05:11:55.251Z,40.37
2023-02-06T05:14:22.294Z,39.30
2023-02-06T05:16:49.313Z,38.10
2023-02-06T05:19:16.385Z,38.90
2023-02-06T05:21:43.448Z,39.67
2023-02-06T05:24:10.922Z,37.47
2023-02-06T05:26:38.096Z,38.43
2023-02-06T05:29:05.201Z,36.47
2023-02-06T05:31:32.567Z,33.73
2023-02-06T05:33:59.821Z,34.77
2023-02-06T05:36:27.024Z,34.03
2023-02-06T05:38:54.151Z,33.50
2023-02-06T05:41:21.365Z,34.07
2023-02-06T05:43:48.410Z,32.90
2023-02-06T05:46:15.838Z,32.70
2023-02-06T05:48:43.059Z,32.10
2023-02-06T05:51:10.250Z,34.93
2023-02-06T05:53:37.257Z,35.70
2023-02-06T05:56:05.304Z,35.50
2023-02-06T05:58:33.210Z,34.53
2023-02-06T06:01:00.414Z,35.53
2023-02-06T06:03:27.666Z,34.03
2023-02-06T06:05:54.985Z,36.13
2023-02-06T06:08:22.205Z,36.67
2023-02-06T06:10:53.038Z,36.63
2023-02-06T06:13:20.157Z,36.47
2023-02-06T06:15:51.882Z,37.67
2023-02-06T06:18:20.685Z,35.90
2023-02-06T06:20:48.370Z,32.90
2023-02-06T06:23:15.441Z,33.67
2023-02-06T06:25:42.504Z,31.80
2023-02-06T06:28:10.100Z,33.83
2023-02-06T06:30:37.797Z,32.40
2023-02-06T06:33:05.071Z,31.20
2023-02-06T06:35:33.763Z,33.70
2023-02-06T06:38:01.004Z,34.70
2023-02-06T06:40:28.200Z,36.10
2023-02-06T06:42:55.182Z,37.73
2023-02-06T06:45:22.421Z,36.13
2023-02-06T06:47:49.600Z,35.03
2023-02-06T06:50:16.718Z,32.13
2023-02-06T06:52:43.678Z,33.27
2023-02-06T06:55:11.110Z,35.40
2023-02-06T06:57:38.307Z,36.97
2023-02-06T07:00:06.057Z,38.27
2023-02-06T07:02:33.285Z,41.03
2023-02-06T07:05:00.593Z,42.90
2023-02-06T07:07:27.810Z,40.93
2023-02-06T07:09:54.888Z,42.97
2023-02-06T07:12:22.619Z,42.50
2023-02-06T07:14:49.945Z,42.37
2023-02-06T07:17:17.341Z,43.87
2023-02-06T07:19:48.143Z,44.63
2023-02-06T07:22:15.896Z,43.00
2023-02-06T07:24:43.004Z,42.70
2023-02-06T07:27:10.295Z,42.57
2023-02-06T07:29:38.002Z,43.03
2023-02-06T07:32:06.238Z,45.37
2023-02-06T07:34:33.348Z,44.00
2023-02-06T07:37:01.318Z,42.13
2023-02-06T07:39:28.368Z,45.00
2023-02-06T07:41:55.389Z,45.03
2023-02-06T07:44:27.038Z,42.00
2023-02-06T07:46:54.205Z,41.13
2023-02-06T07:49:21.300Z,41.80
2023-02-06T07:51:48.296Z,40.53
2023-02-06T07:54:15.447Z,36.37
2023-02-06T07:56:43.130Z,36.53
2023-02-06T07:59:10.301Z,35.40
2023-02-06T08:01:37.653Z,35.63
2023-02-06T08:04:05.254Z,34.73
2023-02-06T08:06:32.537Z,34.17
2023-02-06T08:08:59.573Z,31.40
2023-02-06T08:11:30.205Z,31.53
2023-02-06T08:13:57.871Z,33.47
2023-02-06T08:16:25.485Z,32.87
2023-02-06T08:18:52.958Z,33.13
2023-02-06T08:21:24.405Z,33.37
2023-02-06T08:23:59.472Z,32.73
2023-02-06T08:26:28.949Z,33.93
2023-02-06T08:28:57.097Z,33.47
2023-02-06T08:31:27.498Z,29.67
2023-02-06T08:33:55.773Z,29.90
2023-02-06T08:36:24.362Z,29.93
2023-02-06T08:38:52.524Z,29.17
2023-02-06T08:41:22.289Z,27.43
2023-02-06T08:43:51.228Z,28.57
2023-02-06T08:46:19.952Z,26.97
2023-02-06T08:48:47.561Z,26.93
2023-02-06T08:51:15.454Z,24.17
2023-02-06T08:53:42.589Z,23.33
2023-02-06T08:56:12.394Z,25.27
2023-02-06T08:58:40.257Z,25.03
2023-02-06T09:01:09.101Z,25.93
2023-02-06T09:03:36.654Z,25.57
2023-02-06T09:06:09.811Z,26.57
2023-02-06T09:08:38.339Z,23.77
2023-02-06T09:11:11.272Z,19.53
2023-02-06T09:13:39.319Z,17.53
2023-02-06T09:16:07.328Z,17.40
2023-02-06T09:18:35.030Z,14.47
2023-02-06T09:21:16.335Z,13.03
2023-02-06T09:23:49.227Z,12.57
2023-02-06T09:26:19.497Z,12.33
2023-02-06T09:28:46.738Z,10.23
2023-02-06T09:31:14.376Z,12.50
2023-02-06T09:33:41.495Z,11.90
2023-02-06T09:36:14.448Z,12.23
2023-02-06T09:38:47.389Z,11.73
2023-02-06T09:41:34.244Z,11.30
2023-02-06T09:44:18.064Z,11.73
2023-02-06T09:47:06.320Z,12.77
2023-02-06T09:49:52.788Z,13.50
2023-02-06T09:52:44.758Z,12.77
2023-02-06T09:55:49.331Z,10.93
2023-02-06T09:58:22.738Z,12.33
2023-02-06T10:00:55.264Z,12.70
2023-02-06T10:03:40.304Z,12.47
2023-02-06T10:06:22.850Z,12.80
2023-02-06T10:09:11.299Z,13.00
2023-02-06T10:11:54.794Z,11.77
2023-02-06T10:14:24.639Z,11.93
2023-02-06T10:17:02.499Z,12.83
2023-02-06T10:20:04.627Z,12.37
2023-02-06T10:22:45.559Z,12.27
2023-02-06T10:25:29.694Z,11.93
2023-02-06T10:28:08.594Z,11.90
2023-02-06T10:31:05.241Z,12.53
2023-02-06T10:34:06.180Z,11.37
2023-02-06T10:36:56.093Z,9.83
2023-02-06T10:39:47.771Z,10.57
2023-02-06T10:42:14.783Z,10.90
2023-02-06T10:44:51.269Z,10.37
2023-02-06T10:47:26.897Z,11.43
2023-02-06T10:50:18.874Z,10.80
2023-02-06T10:52:46.968Z,10.20
2023-02-06T10:55:40.882Z,10.03
2023-02-06T10:58:17.712Z,10.70
2023-02-06T11:00:46.641Z,10.20
2023-02-06T11:03:19.190Z,9.90
2023-02-06T11:05:47.185Z,10.73
2023-02-06T11:08:19.061Z,8.83
2023-02-06T11:10:46.757Z,9.37
2023-02-06T11:13:22.076Z,8.57
2023-02-06T11:16:02.747Z,8.63
2023-02-06T11:18:36.737Z,8.63
2023-02-06T11:21:04.165Z,9.07
2023-02-06T11:23:34.699Z,7.57
2023-02-06T11:26:14.630Z,7.50
2023-02-06T11:29:09.969Z,8.57
2023-02-06T11:31:46.410Z,7.40
2023-02-06T11:34:25.968Z,8.43
2023-02-06T11:37:23.829Z,8.50
2023-02-06T11:39:51.023Z,7.70
2023-02-06T11:42:23.546Z,7.67
2023-02-06T11:44:52.152Z,9.13
2023-02-06T11:47:29.619Z,7.00
2023-02-06T11:50:17.584Z,7.67
2023-02-06T11:52:47.013Z,7.73
2023-02-06T11:55:34.228Z,8.20
2023-02-06T11:58:12.056Z,8.30
2023-02-06T12:01:04.294Z,8.57
2023-02-06T12:03:38.288Z,7.50
2023-02-06T12:06:13.394Z,8.67
2023-02-06T12:08:53.197Z,8.67
2023-02-06T12:11:40.520Z,8.77
2023-02-06T12:14:12.173Z,8.70
2023-02-06T12:16:42.234Z,8.23
2023-02-06T12:19:16.467Z,9.60
2023-02-06T12:21:48.915Z,9.40
2023-02-06T12:24:25.784Z,9.23
2023-02-06T12:26:55.410Z,11.65
2023-02-06T12:29:32.594Z,9.63
2023-02-06T12:32:18.542Z,9.90
2023-02-06T12:34:56.437Z,9.80
2023-02-06T12:37:35.455Z,9.50
2023-02-06T12:40:02.845Z,9.67
2023-02-06T12:42:42.302Z,8.63
2023-02-06T12:45:31.860Z,9.37
2023-02-06T12:48:11.937Z,10.27
2023-02-06T12:50:57.897Z,9.63
2023-02-06T12:53:35.588Z,9.30
2023-02-06T12:56:21.544Z,9.37
2023-02-06T12:59:09.154Z,10.13
2023-02-06T13:02:11.783Z,9.43
2023-02-06T13:04:39.344Z,8.13
2023-02-06T13:07:11.110Z,9.27
2023-02-06T13:09:51.678Z,7.80
2023-02-06T13:12:24.371Z,8.93
2023-02-06T13:14:55.819Z,8.70
2023-02-06T13:17:24.856Z,8.67
2023-02-06T13:20:05.332Z,9.17
2023-02-06T13:22:43.979Z,8.10
2023-02-06T13:25:26.018Z,8.23
2023-02-06T13:27:55.312Z,7.97
2023-02-06T13:30:31.227Z,8.47
2023-02-06T13:33:42.407Z,8.13
2023-02-06T13:36:17.793Z,8.13
2023-02-06T13:38:45.020Z,8.07
2023-02-06T13:41:15.089Z,8.50
2023-02-06T13:43:47.750Z,8.17
2023-02-06T13:46:18.529Z,7.43
2023-02-06T13:49:12.154Z,8.77
2023-02-06T13:52:25.150Z,7.80
2023-02-06T13:55:01.103Z,5.50
2023-02-06T13:58:04.488Z,8.43
2023-02-06T14:00:37.965Z,8.53
2023-02-06T14:03:13.434Z,8.07
2023-02-06T14:05:46.272Z,8.60
2023-02-06T14:08:15.981Z,8.67
2023-02-06T14:11:08.726Z,9.87
2023-02-06T14:14:28.441Z,9.33
2023-02-06T14:17:19.874Z,9.43
2023-02-06T14:20:12.301Z,9.07
2023-02-06T14:22:47.217Z,8.83
2023-02-06T14:25:28.283Z,9.77
2023-02-06T14:28:14.186Z,10.73
2023-02-06T14:30:46.999Z,10.47
2023-02-06T14:33:25.372Z,10.50
2023-02-06T14:36:07.673Z,9.30
2023-02-06T14:38:54.803Z,10.13
2023-02-06T14:41:22.314Z,10.10
2023-02-06T14:43:51.149Z,10.30
2023-02-06T14:46:19.528Z,10.47
2023-02-06T14:48:52.803Z,11.60
2023-02-06T14:51:35.358Z,11.13
2023-02-06T14:54:05.710Z,11.80
2023-02-06T14:56:37.945Z,10.57
2023-02-06T14:59:14.204Z,11.23
2023-02-06T15:01:44.209Z,11.13
2023-02-06T15:04:15.807Z,11.93
2023-02-06T15:06:50.276Z,12.10
2023-02-06T15:09:34.657Z,10.57
2023-02-06T15:12:16.690Z,10.83
2023-02-06T15:14:55.784Z,11.17
2023-02-06T15:17:26.514Z,10.50
2023-02-06T15:19:53.706Z,10.40
2023-02-06T15:22:28.494Z,11.30
2023-02-06T15:25:11.340Z,11.77
2023-02-06T15:27:39.583Z,11.10
2023-02-06T15:30:26.223Z,10.23
2023-02-06T15:32:56.260Z,11.43
2023-02-06T15:35:35.909Z,11.30
2023-02-06T15:38:15.656Z,10.50
2023-02-06T15:40:46.625Z,11.60
2023-02-06T15:43:17.432Z,11.60
2023-02-06T15:45:45.043Z,10.90
2023-02-06T15:48:37.535Z,11.43
2023-02-06T15:51:24.783Z,12.00
2023-02-06T15:54:05.476Z,11.20
2023-02-06T15:56:35.968Z,11.30
2023-02-06T15:59:06.347Z,11.37
2023-02-06T16:01:38.713Z,10.50
2023-02-06T16:04:12.644Z,10.27
2023-02-06T16:06:39.870Z,10.07
2023-02-06T16:09:08.539Z,11.93
2023-02-06T16:11:50.766Z,11.97
2023-02-06T16:14:25.255Z,11.50
2023-02-06T16:16:57.827Z,11.00
2023-02-06T16:19:53.403Z,11.20
2023-02-06T16:22:28.172Z,11.20
2023-02-06T16:25:13.910Z,11.60
2023-02-06T16:27:46.904Z,11.67
2023-02-06T16:30:40.813Z,12.13
2023-02-06T16:33:38.643Z,11.00
2023-02-06T16:36:06.399Z,11.90
2023-02-06T16:38:34.050Z,12.63
2023-02-06T16:41:01.260Z,11.30
2023-02-06T16:43:30.674Z,11.27
2023-02-06T16:46:00.635Z,12.10
2023-02-06T16:48:27.970Z,11.33
2023-02-06T16:50:55.181Z,12.13
2023-02-06T16:53:24.739Z,12.60
2023-02-06T16:55:52.289Z,12.87
2023-02-06T16:58:21.928Z,12.50
2023-02-06T17:00:49.657Z,12.80
2023-02-06T17:03:17.898Z,11.97
2023-02-06T17:05:49.247Z,13.57
2023-02-06T17:08:21.907Z,12.67
2023-02-06T17:10:49.355Z,12.87
2023-02-06T17:13:18.500Z,12.17
2023-02-06T17:15:49.093Z,13.07
2023-02-06T17:18:18.915Z,12.87
2023-02-06T17:20:49.519Z,13.17
2023-02-06T17:23:16.554Z,13.27
2023-02-06T17:25:45.586Z,13.03
2023-02-06T17:28:15.909Z,11.43
2023-02-06T17:30:44.034Z,13.07
2023-02-06T17:33:11.192Z,12.67
2023-02-06T17:35:38.661Z,12.53
2023-02-06T17:38:07.936Z,13.03
2023-02-06T17:40:37.024Z,12.27
2023-02-06T17:43:04.915Z,12.30
2023-02-06T17:45:32.243Z,12.70
2023-02-06T17:47:59.838Z,13.00
2023-02-06T17:50:29.653Z,13.33
2023-02-06T17:52:59.009Z,12.47
2023-02-06T17:55:27.611Z,13.23
2023-02-06T17:57:54.999Z,13.10
2023-02-06T18:00:23.979Z,13.90
2023-02-06T18:02:52.661Z,13.80
2023-02-06T18:05:20.594Z,14.13
2023-02-06T18:07:50.627Z,14.20
2023-02-06T18:10:22.462Z,15.43
2023-02-06T18:12:49.848Z,15.50
2023-02-06T18:15:17.334Z,15.40
2023-02-06T18:17:44.701Z,14.67
2023-02-06T18:20:12.876Z,15.43
2023-02-06T18:22:41.218Z,14.60
2023-02-06T18:25:14.583Z,14.53
2023-02-06T18:27:45.250Z,14.17
2023-02-06T18:30:13.740Z,13.93
2023-02-06T18:32:40.884Z,14.97
2023-02-06T18:35:09.105Z,15.13
2023-02-06T18:37:36.576Z,15.13
2023-02-06T18:40:04.530Z,14.73
2023-02-06T18:42:50.242Z,15.97
2023-02-06T18:45:25.990Z,15.33
2023-02-06T18:47:53.069Z,15.57
2023-02-06T18:50:22.093Z,15.07
2023-02-06T18:52:50.323Z,15.83
2023-02-06T18:55:17.540Z,15.70
2023-02-06T18:57:44.770Z,14.93
2023-02-06T19:00:15.704Z,15.30
2023-02-06T19:02:43.028Z,20.27
2023-02-06T19:05:10.361Z,22.40
2023-02-06T19:07:37.659Z,22.17
2023-02-06T19:10:06.492Z,24.10
2023-02-06T19:12:33.677Z,28.13
2023-02-06T19:15:00.747Z,30.77
2023-02-06T19:17:28.323Z,31.77
2023-02-06T19:19:55.519Z,31.03
2023-02-06T19:22:23.230Z,30.30
2023-02-06T19:24:54.055Z,30.70
2023-02-06T19:27:21.836Z,32.90
2023-02-06T19:29:49.120Z,32.70
2023-02-06T19:32:16.352Z,32.97
2023-02-06T19:34:45.269Z,34.43
2023-02-06T19:37:13.121Z,33.10
2023-02-06T19:39:40.860Z,28.90
2023-02-06T19:42:10.343Z,27.77
2023-02-06T19:44:37.966Z,31.10
2023-02-06T19:47:05.163Z,30.23
2023-02-06T19:49:32.559Z,32.73
2023-02-06T19:51:59.783Z,37.13
2023-02-06T19:54:27.835Z,38.70
2023-02-06T19:56:55.399Z,44.13
2023-02-06T19:59:27.733Z,47.87
2023-02-06T20:01:57.248Z,47.90
2023-02-06T20:04:27.059Z,48.67
2023-02-06T20:06:55.934Z,48.70
2023-02-06T20:09:23.345Z,50.70
2023-02-06T20:11:50.794Z,46.17
2023-02-06T20:14:19.291Z,49.93
2023-02-06T20:16:47.290Z,53.07
2023-02-06T20:19:18.701Z,55.30
2023-02-06T20:21:49.089Z,56.50
2023-02-06T20:24:26.594Z,55.80
2023-02-06T20:26:56.758Z,55.33
2023-02-06T20:29:31.327Z,57.93
2023-02-06T20:31:59.020Z,60.13
2023-02-06T20:34:27.102Z,60.63
2023-02-06T20:36:55.630Z,61.13
2023-02-06T20:39:23.639Z,62.40
2023-02-06T20:41:50.965Z,60.63
2023-02-06T20:44:19.357Z,62.27
2023-02-06T20:46:46.820Z,61.03
2023-02-06T20:49:16.669Z,62.83
2023-02-06T20:51:44.983Z,63.70
2023-02-06T20:54:12.384Z,61.70
2023-02-06T20:56:40.810Z,62.40
2023-02-06T20:59:11.939Z,61.50
2023-02-06T21:01:40.113Z,60.73
2023-02-06T21:04:09.384Z,61.67
2023-02-06T21:06:37.856Z,60.60
2023-02-06T21:09:06.693Z,62.63
2023-02-06T21:11:37.084Z,60.97
2023-02-06T21:14:06.519Z,65.20
2023-02-06T21:16:35.815Z,63.33
2023-02-06T21:19:05.368Z,63.37
2023-02-06T21:21:33.470Z,62.87
2023-02-06T21:24:00.655Z,62.47
2023-02-06T21:26:28.836Z,68.80
2023-02-06T21:28:58.350Z,68.60
2023-02-06T21:31:36.937Z,70.40
2023-02-06T21:34:12.130Z,67.10
2023-02-06T21:36:40.228Z,68.73
2023-02-06T21:39:08.124Z,67.40
2023-02-06T21:41:36.727Z,64.53
2023-02-06T21:44:04.015Z,64.23
2023-02-06T21:46:31.258Z,61.70
2023-02-06T21:48:58.482Z,63.87
2023-02-06T21:51:25.817Z,68.40
2023-02-06T21:53:52.921Z,70.00
2023-02-06T21:56:25.463Z,71.00
2023-02-06T21:58:53.071Z,71.30
2023-02-06T22:01:23.548Z,65.70
2023-02-06T22:03:50.618Z,64.77
2023-02-06T22:06:20.038Z,68.27
2023-02-06T22:08:51.751Z,68.77
2023-02-06T22:11:20.967Z,68.33
2023-02-06T22:13:48.782Z,67.47
2023-02-06T22:16:18.509Z,65.20
2023-02-06T22:18:45.761Z,67.60
2023-02-06T22:21:21.005Z,65.63
2023-02-06T22:23:49.636Z,68.97
2023-02-06T22:26:19.269Z,69.63
2023-02-06T22:28:47.223Z,65.03
2023-02-06T22:31:20.374Z,66.83
2023-02-06T22:33:48.491Z,67.00
2023-02-06T22:36:18.604Z,66.97
2023-02-06T22:38:47.004Z,69.40
2023-02-06T22:41:16.406Z,68.63
2023-02-06T22:43:45.420Z,65.60
2023-02-06T22:46:25.878Z,70.00
2023-02-06T22:48:53.546Z,66.63
2023-02-06T22:51:21.509Z,67.87
2023-02-06T22:53:49.495Z,72.73
2023-02-06T22:56:32.099Z,61.93
2023-02-06T22:59:12.505Z,63.03
2023-02-06T23:01:42.430Z,64.53
2023-02-06T23:04:14.108Z,69.87
2023-02-06T23:06:41.923Z,67.77
2023-02-06T23:09:12.546Z,68.93
2023-02-06T23:11:39.742Z,65.83
2023-02-06T23:14:06.947Z,78.53
2023-02-06T23:16:35.287Z,77.97
2023-02-06T23:19:04.766Z,72.30
2023-02-06T23:21:33.928Z,75.33
2023-02-06T23:24:01.218Z,79.77
2023-02-06T23:26:28.976Z,79.57
2023-02-06T23:28:58.085Z,74.67
2023-02-06T23:31:26.291Z,75.40
2023-02-06T23:33:53.775Z,76.53
2023-02-06T23:36:22.691Z,71.70
2023-02-06T23:38:50.994Z,71.83
2023-02-06T23:41:23.978Z,76.07
2023-02-06T23:43:57.040Z,77.17
2023-02-06T23:46:25.515Z,76.00
2023-02-06T23:48:53.280Z,75.57
2023-02-06T23:51:21.300Z,76.17
2023-02-06T23:53:49.422Z,73.87
2023-02-06T23:56:22.650Z,73.90
2023-02-06T23:58:50.539Z,71.37
